createdAt,value
2023-04-25T00:01:18.930Z,3.47
2023-04-25T00:03:53.448Z,3.50
2023-04-25T00:06:30.955Z,3.37
2023-04-25T00:09:09.040Z,3.00
2023-04-25T00:11:43.269Z,3.20
2023-04-25T00:14:21.748Z,3.47
2023-04-25T00:16:56.351Z,3.37
2023-04-25T00:19:30.230Z,3.40
2023-04-25T00:22:04.461Z,3.00
2023-04-25T00:24:38.096Z,3.50
2023-04-25T00:27:11.912Z,3.97
2023-04-25T00:29:46.973Z,3.33
2023-04-25T00:32:20.845Z,3.50
2023-04-25T00:34:54.732Z,3.60
2023-04-25T00:37:30.449Z,3.47
2023-04-25T00:40:05.571Z,3.40
2023-04-25T00:42:40.168Z,3.63
2023-04-25T00:45:16.986Z,3.20
2023-04-25T00:47:50.998Z,3.30
2023-04-25T00:50:25.088Z,2.80
2023-04-25T00:52:59.169Z,3.23
2023-04-25T00:55:36.639Z,3.73
2023-04-25T00:58:13.122Z,3.83
2023-04-25T01:00:49.427Z,3.40
2023-04-25T01:03:25.420Z,3.50
2023-04-25T01:05:59.597Z,3.50
2023-04-25T01:08:33.926Z,3.60
2023-04-25T01:11:11.328Z,3.77
2023-04-25T01:13:45.292Z,3.90
2023-04-25T01:16:23.500Z,3.60
2023-04-25T01:18:58.191Z,3.63
2023-04-25T01:21:33.496Z,3.60
2023-04-25T01:24:08.262Z,3.87
2023-04-25T01:26:49.950Z,4.33
2023-04-25T01:29:24.265Z,4.23
2023-04-25T01:31:59.656Z,3.63
2023-04-25T01:34:33.519Z,4.10
2023-04-25T01:37:09.081Z,4.30
2023-04-25T01:39:43.367Z,3.97
2023-04-25T01:42:17.689Z,4.17
2023-04-25T01:44:51.764Z,4.43
2023-04-25T01:47:25.402Z,4.67
2023-04-25T01:49:59.377Z,4.60
2023-04-25T01:52:34.613Z,4.70
2023-04-25T01:55:09.478Z,4.87
2023-04-25T01:57:45.601Z,5.10
2023-04-25T02:00:32.417Z,4.60
2023-04-25T02:03:06.722Z,4.67
2023-04-25T02:05:41.707Z,4.33
2023-04-25T02:08:16.807Z,4.27
2023-04-25T02:10:50.919Z,4.80
2023-04-25T02:13:24.499Z,4.17
2023-04-25T02:15:58.351Z,3.97
2023-04-25T02:18:33.114Z,3.97
2023-04-25T02:21:07.192Z,4.17
2023-04-25T02:23:42.263Z,4.00
2023-04-25T02:26:15.835Z,3.93
2023-04-25T02:28:51.471Z,3.97
2023-04-25T02:31:27.228Z,3.77
2023-04-25T02:34:01.150Z,4.20
2023-04-25T02:36:35.343Z,4.57
2023-04-25T02:39:15.465Z,4.27
2023-04-25T02:41:49.218Z,4.17
2023-04-25T02:44:23.468Z,3.73
2023-04-25T02:46:57.553Z,3.87
2023-04-25T02:49:31.277Z,3.67
2023-04-25T02:52:05.316Z,3.23
2023-04-25T02:54:42.595Z,3.40
2023-04-25T02:57:16.465Z,2.93
2023-04-25T02:59:50.356Z,3.57
2023-04-25T03:02:23.920Z,3.40
2023-04-25T03:05:00.672Z,3.23
2023-04-25T03:07:34.355Z,3.17
2023-04-25T03:10:12.044Z,3.57
2023-04-25T03:12:46.394Z,3.70
2023-04-25T03:15:20.509Z,3.43
2023-04-25T03:17:54.194Z,3.20
2023-04-25T03:20:28.186Z,3.37
2023-04-25T03:23:02.535Z,3.80
2023-04-25T03:25:38.234Z,3.67
2023-04-25T03:28:11.906Z,3.23
2023-04-25T03:30:45.658Z,3.33
2023-04-25T03:33:19.448Z,3.77
2023-04-25T03:35:55.447Z,3.50
2023-04-25T03:38:29.341Z,3.20
2023-04-25T03:41:06.749Z,3.97
2023-04-25T03:43:40.942Z,3.43
2023-04-25T03:46:14.392Z,3.70
2023-04-25T03:48:51.199Z,3.83
2023-04-25T03:51:25.226Z,3.47
2023-04-25T03:53:59.131Z,3.60
2023-04-25T03:56:36.346Z,4.03
2023-04-25T03:59:10.616Z,3.53
2023-04-25T04:01:44.321Z,3.67
2023-04-25T04:04:19.276Z,3.27
2023-04-25T04:06:53.642Z,3.10
2023-04-25T04:09:28.633Z,3.83
2023-04-25T04:12:08.387Z,3.30
2023-04-25T04:14:43.586Z,3.30
2023-04-25T04:17:17.200Z,2.57
2023-04-25T04:19:51.035Z,2.80
2023-04-25T04:22:25.127Z,2.20
2023-04-25T04:25:01.754Z,2.13
2023-04-25T04:27:51.320Z,2.10
2023-04-25T04:30:26.504Z,2.20
2023-04-25T04:33:00.355Z,1.80
2023-04-25T04:35:33.843Z,2.67
2023-04-25T04:38:07.760Z,2.10
2023-04-25T04:40:41.248Z,2.27
2023-04-25T04:43:18.168Z,2.37
2023-04-25T04:45:52.085Z,2.40
2023-04-25T04:48:25.836Z,2.20
2023-04-25T04:50:59.776Z,2.43
2023-04-25T04:53:36.235Z,2.30
2023-04-25T04:56:10.138Z,2.13
2023-04-25T04:58:50.352Z,2.00
2023-04-25T05:01:24.295Z,1.97
2023-04-25T05:04:01.590Z,2.00
2023-04-25T05:06:36.067Z,2.37
2023-04-25T05:09:10.172Z,2.00
2023-04-25T05:11:43.875Z,2.10
2023-04-25T05:14:19.110Z,1.73
2023-04-25T05:16:53.162Z,1.80
2023-04-25T05:19:27.932Z,2.40
2023-04-25T05:22:02.514Z,2.30
2023-04-25T05:24:38.750Z,1.97
2023-04-25T05:27:12.737Z,1.67
2023-04-25T05:29:47.463Z,2.70
2023-04-25T05:32:21.555Z,2.20
2023-04-25T05:34:55.648Z,2.40
2023-04-25T05:37:31.653Z,3.57
2023-04-25T05:40:08.026Z,3.47
2023-04-25T05:42:41.513Z,3.87
2023-04-25T05:45:16.599Z,3.73
2023-04-25T05:47:52.936Z,4.20
2023-04-25T05:50:27.041Z,3.93
2023-04-25T05:53:00.927Z,4.27
2023-04-25T05:55:35.458Z,4.23
2023-04-25T05:58:09.111Z,3.60
2023-04-25T06:00:44.583Z,3.80
2023-04-25T06:03:20.721Z,3.80
2023-04-25T06:05:54.810Z,3.77
2023-04-25T06:08:28.388Z,3.83
2023-04-25T06:11:02.081Z,3.00
2023-04-25T06:13:35.780Z,3.53
2023-04-25T06:16:12.755Z,3.70
2023-04-25T06:18:46.515Z,3.33
2023-04-25T06:21:21.881Z,3.20
2023-04-25T06:23:55.745Z,3.80
2023-04-25T06:26:29.798Z,3.20
2023-04-25T06:29:03.361Z,3.60
2023-04-25T06:31:44.846Z,3.53
2023-04-25T06:34:18.513Z,3.30
2023-04-25T06:36:57.984Z,3.30
2023-04-25T06:39:32.857Z,3.07
2023-04-25T06:42:09.192Z,3.77
2023-04-25T06:44:43.175Z,3.83
2023-04-25T06:47:18.556Z,3.90
2023-04-25T06:49:52.399Z,3.63
2023-04-25T06:52:33.106Z,3.43
2023-04-25T06:55:10.117Z,3.90
2023-04-25T06:57:44.467Z,3.30
2023-04-25T07:00:19.538Z,3.70
2023-04-25T07:02:55.377Z,3.17
2023-04-25T07:05:29.439Z,3.47
2023-04-25T07:08:06.304Z,3.13
2023-04-25T07:10:40.096Z,3.30
2023-04-25T07:13:14.229Z,2.63
2023-04-25T07:15:51.640Z,2.63
2023-04-25T07:18:32.536Z,2.40
2023-04-25T07:21:06.821Z,2.30
2023-04-25T07:23:41.835Z,2.30
2023-04-25T07:26:16.190Z,2.20
2023-04-25T07:28:53.293Z,1.70
2023-04-25T07:31:27.416Z,1.50
2023-04-25T07:34:06.813Z,1.77
2023-04-25T07:36:41.293Z,1.60
2023-04-25T07:39:15.441Z,2.20
2023-04-25T07:41:49.306Z,1.97
2023-04-25T07:44:23.796Z,2.20
2023-04-25T07:47:04.571Z,2.00
2023-04-25T07:49:41.322Z,1.90
2023-04-25T07:52:15.434Z,2.10
2023-04-25T07:54:52.346Z,2.00
2023-04-25T07:57:26.576Z,2.03
2023-04-25T08:00:00.203Z,1.70
2023-04-25T08:02:33.934Z,2.00
2023-04-25T08:05:15.914Z,1.97
2023-04-25T08:07:51.789Z,1.63
2023-04-25T08:10:25.520Z,2.10
2023-04-25T08:12:59.243Z,2.57
2023-04-25T08:15:32.692Z,2.83
2023-04-25T08:18:06.712Z,2.40
2023-04-25T08:20:42.355Z,2.87
2023-04-25T08:23:15.924Z,2.40
2023-04-25T08:25:51.014Z,2.67
2023-04-25T08:28:24.847Z,2.87
2023-04-25T08:30:59.766Z,2.23
2023-04-25T08:33:34.242Z,2.30
2023-04-25T08:36:10.412Z,1.90
2023-04-25T08:38:44.551Z,1.77
2023-04-25T08:41:20.470Z,1.63
2023-04-25T08:43:56.145Z,1.53
2023-04-25T08:46:31.238Z,1.60
2023-04-25T08:49:05.473Z,1.37
2023-04-25T08:51:48.814Z,1.57
2023-04-25T08:57:06.818Z,1.73
2023-04-25T08:59:47.211Z,1.80
2023-04-25T09:02:22.077Z,1.30
2023-04-25T09:04:57.403Z,1.43
2023-04-25T09:07:32.963Z,1.57
2023-04-25T09:10:07.852Z,1.33
2023-04-25T09:12:41.889Z,2.03
2023-04-25T09:17:59.311Z,1.67
2023-04-25T09:20:37.632Z,1.93
2023-04-25T09:23:18.202Z,2.00
2023-04-25T09:25:54.357Z,1.97
2023-04-25T09:28:30.908Z,2.13
2023-04-25T09:31:04.838Z,2.53
2023-04-25T09:33:38.915Z,1.70
2023-04-25T09:36:17.369Z,1.60
2023-04-25T09:38:55.657Z,2.23
2023-04-25T09:41:29.365Z,1.37
2023-04-25T09:44:03.965Z,1.50
2023-04-25T09:46:38.668Z,1.60
2023-04-25T09:49:12.772Z,1.23
2023-04-25T09:51:59.458Z,1.53
2023-04-25T09:54:38.301Z,0.90
2023-04-25T09:57:16.361Z,1.10
2023-04-25T09:59:53.314Z,1.10
2023-04-25T10:02:30.328Z,1.10
2023-04-25T10:05:10.211Z,1.10
2023-04-25T10:07:44.895Z,1.23
2023-04-25T10:10:27.331Z,1.17
2023-04-25T10:13:03.149Z,1.30
2023-04-25T10:15:40.328Z,0.93
2023-04-25T10:18:14.818Z,1.27
2023-04-25T10:20:48.772Z,1.00
2023-04-25T10:23:29.739Z,1.30
2023-04-25T10:26:05.511Z,1.03
2023-04-25T10:29:03.503Z,1.20
2023-04-25T10:31:48.638Z,1.13
2023-04-25T10:34:42.911Z,1.00
2023-04-25T10:37:17.553Z,1.07
2023-04-25T10:39:51.460Z,1.00
2023-04-25T10:42:27.106Z,1.27
2023-04-25T10:45:14.956Z,0.90
2023-04-25T10:47:49.646Z,1.20
2023-04-25T10:50:23.714Z,1.37
2023-04-25T10:52:57.912Z,1.33
2023-04-25T10:55:52.837Z,1.40
2023-04-25T10:58:29.601Z,1.13
2023-04-25T11:01:04.767Z,1.13
2023-04-25T11:03:44.496Z,1.37
2023-04-25T11:06:29.729Z,1.40
2023-04-25T11:09:04.907Z,1.00
2023-04-25T11:11:39.932Z,1.30
2023-04-25T11:14:15.346Z,1.40
2023-04-25T11:16:49.398Z,1.50
2023-04-25T11:19:23.788Z,1.40
2023-04-25T11:21:59.007Z,1.10
2023-04-25T11:24:35.314Z,1.30
2023-04-25T11:27:09.246Z,1.53
2023-04-25T11:29:44.645Z,1.40
2023-04-25T11:32:21.660Z,1.57
2023-04-25T11:34:55.413Z,1.13
2023-04-25T11:37:31.582Z,1.47
2023-04-25T11:40:12.845Z,1.33
2023-04-25T11:42:48.523Z,1.50
2023-04-25T11:45:25.690Z,1.40
2023-04-25T11:48:03.559Z,1.17
2023-04-25T11:50:37.331Z,1.23
2023-04-25T11:53:14.398Z,1.20
2023-04-25T11:55:49.166Z,1.03
2023-04-25T11:58:23.418Z,0.93
2023-04-25T12:01:04.070Z,1.23
2023-04-25T12:03:51.139Z,1.63
2023-04-25T12:06:30.002Z,1.00
2023-04-25T12:09:05.878Z,0.90
2023-04-25T12:12:03.844Z,0.70
2023-04-25T12:14:40.162Z,1.07
2023-04-25T12:17:15.238Z,0.80
2023-04-25T12:19:51.235Z,1.20
2023-04-25T12:22:27.120Z,0.93
2023-04-25T12:25:00.692Z,1.37
2023-04-25T12:27:37.039Z,1.10
2023-04-25T12:30:14.912Z,0.90
2023-04-25T12:32:51.104Z,1.00
2023-04-25T12:35:30.050Z,1.13
2023-04-25T12:38:03.671Z,0.90
2023-04-25T12:40:37.716Z,0.93
2023-04-25T12:43:14.352Z,1.00
2023-04-25T12:45:52.910Z,1.00
2023-04-25T12:48:28.766Z,0.83
2023-04-25T12:51:02.490Z,0.80
2023-04-25T12:53:38.725Z,1.07
2023-04-25T12:56:12.949Z,1.00
2023-04-25T12:58:49.808Z,1.10
2023-04-25T13:01:27.619Z,1.10
2023-04-25T13:04:03.227Z,1.03
2023-04-25T13:06:37.484Z,0.90
2023-04-25T13:09:15.392Z,1.20
2023-04-25T13:11:49.600Z,0.80
2023-04-25T13:14:23.306Z,0.90
2023-04-25T13:16:58.294Z,1.27
2023-04-25T13:19:35.125Z,1.10
2023-04-25T13:22:09.142Z,0.90
2023-04-25T13:24:43.860Z,1.10
2023-04-25T13:27:17.686Z,0.93
2023-04-25T13:29:53.813Z,1.20
2023-04-25T13:32:28.289Z,1.30
2023-04-25T13:35:06.549Z,1.43
2023-04-25T13:37:45.378Z,1.20
2023-04-25T13:40:19.318Z,1.10
2023-04-25T13:42:53.489Z,1.00
2023-04-25T13:45:28.037Z,1.30
2023-04-25T13:48:02.063Z,1.00
2023-04-25T13:50:37.413Z,1.10
2023-04-25T13:53:10.960Z,0.83
2023-04-25T13:55:44.992Z,1.10
2023-04-25T13:58:20.936Z,0.90
2023-04-25T14:00:57.556Z,1.40
2023-04-25T14:03:31.755Z,1.20
2023-04-25T14:06:10.051Z,1.10
2023-04-25T14:08:43.736Z,0.90
2023-04-25T14:11:19.092Z,1.00
2023-04-25T14:13:52.890Z,1.00
2023-04-25T14:16:27.718Z,0.90
2023-04-25T14:19:03.138Z,0.80
2023-04-25T14:21:38.321Z,0.70
2023-04-25T14:24:13.308Z,0.90
2023-04-25T14:26:47.233Z,0.93
2023-04-25T14:29:21.424Z,1.00
2023-04-25T14:31:58.504Z,0.80
2023-04-25T14:34:32.111Z,0.80
2023-04-25T14:37:07.350Z,0.90
2023-04-25T14:39:41.504Z,0.80
2023-04-25T14:42:15.187Z,0.70
2023-04-25T14:44:52.137Z,0.57
2023-04-25T14:47:27.291Z,0.70
2023-04-25T14:50:01.538Z,0.60
2023-04-25T14:52:40.435Z,0.67
2023-04-25T14:55:15.356Z,0.80
2023-04-25T14:57:52.068Z,0.63
2023-04-25T15:00:26.357Z,0.73
2023-04-25T15:03:01.507Z,0.83
2023-04-25T15:05:35.501Z,0.70
2023-04-25T15:08:11.375Z,0.60
2023-04-25T15:10:48.431Z,0.77
2023-04-25T15:13:25.818Z,0.70
2023-04-25T15:16:01.097Z,1.00
2023-04-25T15:18:34.793Z,0.97
2023-04-25T15:21:08.932Z,0.90
2023-04-25T15:23:44.752Z,1.03
2023-04-25T15:26:18.389Z,1.30
2023-04-25T15:28:52.001Z,0.83
2023-04-25T15:31:25.617Z,0.87
2023-04-25T15:33:59.186Z,1.20
2023-04-25T15:36:35.013Z,0.90
2023-04-25T15:39:10.957Z,1.50
2023-04-25T15:41:44.829Z,0.80
2023-04-25T15:44:18.596Z,0.93
2023-04-25T15:46:57.934Z,0.70
2023-04-25T15:49:31.404Z,0.83
2023-04-25T15:52:05.637Z,0.80
2023-04-25T15:54:40.426Z,0.90
2023-04-25T15:57:14.213Z,0.87
2023-04-25T15:59:47.793Z,1.00
2023-04-25T16:02:22.274Z,1.10
2023-04-25T16:04:59.119Z,0.90
2023-04-25T16:07:33.263Z,0.93
2023-04-25T16:10:11.541Z,0.90
2023-04-25T16:12:54.060Z,1.20
2023-04-25T16:15:27.853Z,0.90
2023-04-25T16:18:06.088Z,0.90
2023-04-25T16:20:43.899Z,0.90
2023-04-25T16:23:17.356Z,1.07
2023-04-25T16:25:52.551Z,1.10
2023-04-25T16:28:26.401Z,0.97
2023-04-25T16:31:00.689Z,0.83
2023-04-25T16:33:35.607Z,0.87
2023-04-25T16:36:10.946Z,1.30
2023-04-25T16:38:47.266Z,1.20
2023-04-25T16:41:30.851Z,0.87
2023-04-25T16:44:07.149Z,0.90
2023-04-25T16:46:42.784Z,0.70
2023-04-25T16:49:17.269Z,0.90
2023-04-25T16:51:51.438Z,1.00
2023-04-25T16:54:31.174Z,1.10
2023-04-25T16:57:10.780Z,0.90
2023-04-25T16:59:44.288Z,0.90
2023-04-25T17:02:18.409Z,1.03
2023-04-25T17:04:52.030Z,0.87
2023-04-25T17:07:26.110Z,1.00
2023-04-25T17:10:01.314Z,0.90
2023-04-25T17:12:37.967Z,1.00
2023-04-25T17:15:14.934Z,1.23
2023-04-25T17:17:48.558Z,1.10
2023-04-25T17:20:22.783Z,1.10
2023-04-25T17:22:57.580Z,0.97
2023-04-25T17:25:33.345Z,0.93
2023-04-25T17:28:08.229Z,0.90
2023-04-25T17:30:42.841Z,1.07
2023-04-25T17:33:17.166Z,1.20
2023-04-25T17:35:50.822Z,1.03
2023-04-25T17:38:30.876Z,0.83
2023-04-25T17:41:06.554Z,0.90
2023-04-25T17:43:42.042Z,1.00
2023-04-25T17:46:16.476Z,0.90
2023-04-25T17:48:52.091Z,1.20
2023-04-25T17:51:26.511Z,1.33
2023-04-25T17:54:02.545Z,1.37
2023-04-25T17:56:40.194Z,1.13
2023-04-25T17:59:16.206Z,1.20
2023-04-25T18:01:51.592Z,2.30
2023-04-25T18:04:24.996Z,2.27
2023-04-25T18:06:59.701Z,3.40
2023-04-25T18:09:34.564Z,2.07
2023-04-25T18:12:09.491Z,2.03
2023-04-25T18:14:45.912Z,1.70
2023-04-25T18:17:20.513Z,1.33
2023-04-25T18:19:54.544Z,1.43
2023-04-25T18:22:31.146Z,0.97
2023-04-25T18:25:05.926Z,1.00
2023-04-25T18:27:43.462Z,1.10
2023-04-25T18:30:19.181Z,1.10
2023-04-25T18:32:52.930Z,1.33
2023-04-25T18:35:27.998Z,1.30
2023-04-25T18:38:01.699Z,1.43
2023-04-25T18:40:37.690Z,1.73
2023-04-25T18:43:18.269Z,1.33
2023-04-25T18:45:58.249Z,1.30
2023-04-25T18:48:31.987Z,1.43
2023-04-25T18:51:17.744Z,1.93
2023-04-25T18:53:52.196Z,1.50
2023-04-25T18:56:27.572Z,1.70
2023-04-25T18:59:01.110Z,1.20
2023-04-25T19:01:36.816Z,1.33
2023-04-25T19:04:10.882Z,1.57
2023-04-25T19:06:46.400Z,1.20
2023-04-25T19:09:21.449Z,2.10
2023-04-25T19:11:55.876Z,1.80
2023-04-25T19:14:29.648Z,2.20
2023-04-25T19:17:05.002Z,2.40
2023-04-25T19:19:38.563Z,5.57
2023-04-25T19:22:12.743Z,5.10
2023-04-25T19:24:50.539Z,4.60
2023-04-25T19:27:29.374Z,6.03
2023-04-25T19:30:10.807Z,5.93
2023-04-25T19:32:46.261Z,6.13
2023-04-25T19:35:20.148Z,6.83
2023-04-25T19:37:53.718Z,5.60
2023-04-25T19:40:27.959Z,3.53
2023-04-25T19:43:05.004Z,3.27
2023-04-25T19:45:39.150Z,2.70
2023-04-25T19:48:14.703Z,2.10
2023-04-25T19:50:49.502Z,1.80
2023-04-25T19:53:23.144Z,1.63
2023-04-25T19:55:57.659Z,1.70
2023-04-25T19:58:31.226Z,1.70
2023-04-25T20:01:05.441Z,1.30
2023-04-25T20:03:42.568Z,1.30
2023-04-25T20:06:19.667Z,1.40
2023-04-25T20:08:55.552Z,1.50
2023-04-25T20:11:29.342Z,1.00
2023-04-25T20:14:03.341Z,1.30
2023-04-25T20:16:38.826Z,1.10
2023-04-25T20:19:14.438Z,1.20
2023-04-25T20:21:48.911Z,1.33
2023-04-25T20:24:25.426Z,1.37
2023-04-25T20:26:59.830Z,1.50
2023-04-25T20:29:37.451Z,1.30
2023-04-25T20:32:11.381Z,1.10
2023-04-25T20:34:47.735Z,1.43
2023-04-25T20:37:21.691Z,1.43
2023-04-25T20:39:55.595Z,0.90
2023-04-25T20:42:31.568Z,0.97
2023-04-25T20:45:08.002Z,1.10
2023-04-25T20:47:43.403Z,1.03
2023-04-25T20:50:20.297Z,1.30
2023-04-25T20:52:54.392Z,1.57
2023-04-25T20:55:28.277Z,1.10
2023-04-25T20:58:02.064Z,1.60
2023-04-25T21:00:39.100Z,1.60
2023-04-25T21:03:13.507Z,1.40
2023-04-25T21:05:53.484Z,1.40
2023-04-25T21:08:27.270Z,1.40
2023-04-25T21:11:01.531Z,1.40
2023-04-25T21:13:37.271Z,1.67
2023-04-25T21:16:12.457Z,1.50
2023-04-25T21:18:46.573Z,1.57
2023-04-25T21:21:21.967Z,1.47
2023-04-25T21:23:57.967Z,2.03
2023-04-25T21:26:31.736Z,1.73
2023-04-25T21:29:05.488Z,1.27
2023-04-25T21:31:39.465Z,1.20
2023-04-25T21:34:13.469Z,1.83
2023-04-25T21:36:48.905Z,1.60
2023-04-25T21:39:25.283Z,1.77
2023-04-25T21:41:58.986Z,1.60
2023-04-25T21:44:33.596Z,2.70
2023-04-25T21:47:07.298Z,4.40
2023-04-25T21:49:41.172Z,24.47
2023-04-25T21:52:16.621Z,28.53
2023-04-25T21:54:50.576Z,23.90
2023-04-25T21:57:24.600Z,16.50
2023-04-25T21:59:59.122Z,9.90
2023-04-25T22:02:37.005Z,5.30
2023-04-25T22:05:11.304Z,23.83
2023-04-25T22:07:46.179Z,23.70
2023-04-25T22:10:21.138Z,16.03
2023-04-25T22:12:56.460Z,8.23
2023-04-25T22:15:30.577Z,5.27
2023-04-25T22:18:06.080Z,3.70
2023-04-25T22:20:40.112Z,2.47
2023-04-25T22:23:15.802Z,2.20
2023-04-25T22:25:52.214Z,3.10
2023-04-25T22:28:25.944Z,2.33
2023-04-25T22:31:00.033Z,2.03
2023-04-25T22:33:33.950Z,1.73
2023-04-25T22:36:08.275Z,1.47
2023-04-25T22:38:45.017Z,1.57
2023-04-25T22:41:19.089Z,1.57
2023-04-25T22:43:53.844Z,1.70
2023-04-25T22:46:27.802Z,1.47
2023-04-25T22:49:01.972Z,1.30
2023-04-25T22:51:37.215Z,1.47
2023-04-25T22:54:12.749Z,1.53
2023-04-25T22:56:48.096Z,2.10
2023-04-25T22:59:22.478Z,2.80
2023-04-25T23:01:56.781Z,2.80
2023-04-25T23:04:30.745Z,2.17
2023-04-25T23:07:05.278Z,3.90
2023-04-25T23:09:41.630Z,7.40
2023-04-25T23:12:18.857Z,7.87
2023-04-25T23:14:53.219Z,6.90
2023-04-25T23:17:27.359Z,5.27
2023-04-25T23:20:01.339Z,4.77
2023-04-25T23:22:35.372Z,4.10
2023-04-25T23:25:12.419Z,2.93
2023-04-25T23:27:46.458Z,2.63
2023-04-25T23:30:20.821Z,2.17
2023-04-25T23:32:54.841Z,2.40
2023-04-25T23:35:28.999Z,1.97
2023-04-25T23:38:04.447Z,1.97
2023-04-25T23:40:40.676Z,2.50
2023-04-25T23:43:14.617Z,1.63
2023-04-25T23:45:48.500Z,2.20
2023-04-25T23:48:22.271Z,1.80
2023-04-25T23:50:58.433Z,1.70
2023-04-25T23:53:35.175Z,1.87
2023-04-25T23:56:11.443Z,1.87
2023-04-25T23:58:46.970Z,1.80
